• Join FlightAware (Why Join?)
  • Login
  • US Flag 
01:10AM EDT


 

Airport Tracker/Info


-or-


 

Live Flight TrackerFlight Track Log ✈ N373SR ✈ 07-Sep-2013 ✈ KHTO - KUUU

Flight Track Log - Related Links

Times and Time Zones

All times are in EDT time to prevent confusion due to time zone crossing. See the N373SR flight status page for this flight to view local times or setup timezone preferences in your user account.

Time Position Orientation Groundspeed Altitude Reporting Facility
EDT Latitude Longitude Course Direction KTS MPH feet Rate Location/Type
07:42AM 41.2333 -72.9333 72° East 166 191 5,600  Level New York TRACON
07:43AM 41.2500 -72.8667 72° East 163 188 5,600  Level New York TRACON
07:45AM 41.2635 -72.7937 76° East  Level Estimated
07:46AM 41.2833 -72.7000 76° East 167 192 5,600  Level New York TRACON
07:48AM 41.3000 -72.5667 81° East 168 193 5,600 -60 Level New York TRACON
07:49AM 41.3103 -72.5231 73° East 165 190 5,500 -120 Descending Boston Center
07:50AM 41.3208 -72.4622 77° East 165 190 5,400  Descending Boston Center
07:51AM 41.3333 -72.4042 74° East 164 189 5,500  Climbing Boston Center
07:52AM 41.3458 -72.3461 74° East 167 192 5,500  Level Boston Center
07:53AM 41.3542 -72.2853 80° East 164 189 5,500  Level Boston Center
07:54AM 41.3664 -72.2244 75° East 169 194 5,500  Level Boston Center
07:55AM 41.3767 -72.1606 78° East 167 192 5,500  Level Boston Center
07:56AM 41.3869 -72.1025 77° East 172 198 5,500  Level Boston Center
07:57AM 41.3953 -72.0444 79° East 180 207 5,500  Level Boston Center
07:58AM 41.4053 -71.9861 77° East 161 185 5,500  Level Boston Center
07:59AM 41.4156 -71.9281 77° East 168 193 5,500 -60 Level Boston Center
08:00AM 41.4297 -71.8642 74° East 158 182 5,400 -300 Descending Boston Center
08:01AM 41.4400 -71.7978 78° East 192 221 4,900 -540 Descending Boston Center
08:02AM 41.4478 -71.7339 81° East 184 212 4,400 -540 Descending Boston Center
08:03AM 41.4558 -71.6700 80° East 189 217 3,900 -600 Descending Boston Center
08:04AM 41.4678 -71.5925 78° East 191 220 3,200 -600 Descending Boston Center
08:05AM 41.4797 -71.5147 78° East 190 219 2,600 -600 Descending Boston Center